Vancouver, British Columbia

1:12 PM PST on February 27, 2017 (GMT -0800)
Vancouver | | Change Station

Elev 7 ft 49.18 °N, 123.17 °W | Updated 12 minutes ago

Overcast
Overcast
36 °F
Feels Like 36 °F
N
2
Wind Variable Wind from Variable

Today
High -- | Low -- °F
--% Chance of Precip.
Yesterday
High -- | Low -- °F
Precip. -- in
Pressure 29.70 in
Visibility 15.0 miles
Clouds Few 1100 ft
Scattered Clouds 3000 ft
Scattered Clouds 4000 ft
Mostly Cloudy 6700 ft
Overcast 7500 ft
Dew Point 30 °F
Humidity 81%
Rainfall 0.00 in
Snow Depth Not available.
6:58 AM 5:53 PM
New Moon, 2% visible
METAR CYVR 272100Z VRB02KT 15SM FEW011 SCT030 SCT040 BKN067 OVC075 02/M01 A2969 RMK CU1SC2SC1AC2AC2 SLP055
Pressure 29.70 in
Visibility 15.0 miles
Clouds Few 1100 ft
Scattered Clouds 3000 ft
Scattered Clouds 4000 ft
Mostly Cloudy 6700 ft
Overcast 7500 ft
Dew Point 30 °F
Humidity 81%
Rainfall 0.00 in
Snow Depth Not available.
6:58 AM 5:53 PM
New Moon, 2% visible
METAR CYVR 272100Z VRB02KT 15SM FEW011 SCT030 SCT040 BKN067 OVC075 02/M01 A2969 RMK CU1SC2SC1AC2AC2 SLP055

Get Your Daily Forecast Email!

Thanks for signing up!

Be on the lookout for a verification email in your inbox.

You'll start receiving the daily forecast at 8 AM.

×

10-Day Weather Forecast

Almanac

Astronomy

Feb. 27, 2017 Rise Set
Actual Time
Civil Twilight
Nautical Twilight
Astronomical Twilight
Moon
Length of Visible Light
Length of Day
Tomorrow will be .
, % of the Moon is Illuminated

Today's Extremes

Country Highs Country Lows

Community

WunderPhotos

Upload Photos

1,962,540 photos uploaded!

WunderBlog® & News

Nearby

Air Quality

  Air Quality AQ Index Pollutant
Not available.

Snow Depth

Station Depth Elevation

Earthquake Activity

City Distance Mag. Time & Date
Minimum magnitude displayed is 2.5.

Coastal Water Temperatures

Place Temperature

Stations

Nearby Weather Stations

Station Location Temp. Windchill Dew Point Humidity Wind Precip. Elev Updated Type
                   

Watches & Warnings

There are currently no watches in effect.